Time;durP1;ratioP1;P1;durP2;ratioP2;P2;SDS_P1;SDS_P2;PMS_P1;PMS_P2;Temp;Humidity;BMP_temperature;BMP_pressure;BME280_temperature;BME280_humidity;BME280_pressure;Samples;Min_cycle;Max_cycle;Signal;HPM_P1;HPM_P2
2021/08/13 00:02:15;;;;;;;12.73;11.47;;;17.10;99.90;;;;;;5018289;28;20522;-50
2021/08/13 00:04:43;;;;;;;17.00;13.00;;;17.10;99.90;;;;;;5017875;28;20582;-55
2021/08/13 00:07:10;;;;;;;15.90;12.50;;;17.00;99.90;;;;;;5018354;28;20464;-57
2021/08/13 00:09:40;;;;;;;14.60;13.20;;;17.10;99.90;;;;;;5018578;28;20775;-57
2021/08/13 00:12:08;;;;;;;16.60;13.43;;;17.00;99.90;;;;;;5017675;28;20439;-56
2021/08/13 00:14:35;;;;;;;14.43;13.03;;;17.00;99.90;;;;;;5018226;28;20474;-55
2021/08/13 00:17:05;;;;;;;14.10;12.70;;;16.90;99.90;;;;;;4998526;28;20499;-57
2021/08/13 00:19:33;;;;;;;16.13;13.17;;;16.90;99.90;;;;;;5002017;28;20859;-54
2021/08/13 00:22:03;;;;;;;15.60;13.20;;;16.90;99.90;;;;;;5018153;28;20923;-57
2021/08/13 00:24:32;;;;;;;16.83;13.67;;;16.90;99.90;;;;;;5017068;28;20499;-54
2021/08/13 00:26:59;;;;;;;13.63;12.20;;;17.00;99.90;;;;;;5017211;28;20495;-56
2021/08/13 00:29:26;;;;;;;14.90;13.30;;;17.00;99.90;;;;;;5016871;28;20522;-54
2021/08/13 00:31:53;;;;;;;14.93;13.43;;;17.00;99.90;;;;;;5016507;28;20500;-55
2021/08/13 00:34:20;;;;;;;12.73;11.43;;;16.90;99.90;;;;;;5016124;28;20463;-58
2021/08/13 00:36:48;;;;;;;14.63;13.30;;;16.90;99.90;;;;;;5016809;28;20474;-55
2021/08/13 00:39:15;;;;;;;14.73;13.20;;;17.00;99.90;;;;;;5016111;28;20474;-56
2021/08/13 00:41:42;;;;;;;17.10;13.70;;;17.00;99.90;;;;;;5016599;28;20912;-55
2021/08/13 00:44:09;;;;;;;20.60;12.77;;;17.00;99.90;;;;;;5018098;28;20474;-56
2021/08/13 00:46:39;;;;;;;13.73;12.33;;;16.80;99.90;;;;;;5017463;28;20968;-57
2021/08/13 00:49:06;;;;;;;13.93;12.60;;;16.80;99.90;;;;;;5018013;28;20928;-54
2021/08/13 00:51:36;;;;;;;14.90;13.30;;;16.80;99.90;;;;;;5017529;28;20835;-57
2021/08/13 00:54:06;;;;;;;15.67;12.93;;;16.70;99.90;;;;;;5017743;28;20555;-57
2021/08/13 00:56:34;;;;;;;15.33;12.77;;;16.70;99.90;;;;;;5017324;28;20745;-58
2021/08/13 00:59:01;;;;;;;16.07;12.30;;;16.70;99.90;;;;;;5017721;28;20446;-55
2021/08/13 01:01:28;;;;;;;14.50;12.97;;;16.60;99.90;;;;;;5017266;28;20893;-57
2021/08/13 01:03:55;;;;;;;16.67;12.73;;;16.70;99.90;;;;;;5016601;28;20808;-54
2021/08/13 01:06:25;;;;;;;15.60;14.00;;;16.60;99.90;;;;;;5017727;28;20593;-57
2021/08/13 01:08:52;;;;;;;14.40;12.33;;;16.70;99.90;;;;;;5017267;28;20901;-58
2021/08/13 01:11:32;;;;;;;14.23;12.73;;;16.60;99.90;;;;;;5017715;28;21020;-58
2021/08/13 01:14:09;;;;;;;13.17;11.97;;;16.60;99.90;;;;;;5016705;28;20466;-54
2021/08/13 01:16:39;;;;;;;13.57;11.77;;;16.60;99.90;;;;;;5013645;28;20880;-57
2021/08/13 01:19:13;;;;;;;13.63;12.33;;;16.60;99.90;;;;;;5017421;28;20530;-58
2021/08/13 01:21:55;;;;;;;14.57;11.73;;;16.60;99.90;;;;;;5017020;28;20480;-57
2021/08/13 01:24:24;;;;;;;13.40;12.10;;;16.50;99.90;;;;;;5017672;28;20468;-58
2021/08/13 01:27:01;;;;;;;14.30;12.17;;;16.40;99.90;;;;;;5017333;28;20495;-57
2021/08/13 01:29:38;;;;;;;17.50;13.10;;;16.50;99.90;;;;;;5017811;28;20472;-57
2021/08/13 01:32:28;;;;;;;13.77;12.37;;;16.40;99.90;;;;;;5016972;28;20468;-57
2021/08/13 01:35:01;;;;;;;13.20;11.80;;;16.50;99.90;;;;;;5017196;28;20858;-55
2021/08/13 01:37:29;;;;;;;14.07;12.67;;;16.30;99.90;;;;;;5016903;28;20503;-58
2021/08/13 01:39:59;;;;;;;12.93;11.30;;;16.40;99.90;;;;;;5017050;28;20492;-57
2021/08/13 01:42:27;;;;;;;12.93;11.20;;;16.40;99.90;;;;;;5017191;28;20472;-58
2021/08/13 01:44:56;;;;;;;14.30;12.80;;;16.30;99.90;;;;;;5017112;28;20492;-57
2021/08/13 01:47:25;;;;;;;13.73;12.37;;;16.30;99.90;;;;;;5017342;28;20837;-58
2021/08/13 01:49:55;;;;;;;15.27;13.80;;;16.30;99.90;;;;;;5017081;28;20551;-58
2021/08/13 01:52:24;;;;;;;13.53;11.50;;;16.30;99.90;;;;;;5017084;28;20909;-56
2021/08/13 01:54:53;;;;;;;13.53;11.83;;;16.30;99.90;;;;;;5016788;28;20526;-59
2021/08/13 01:57:21;;;;;;;12.53;11.17;;;16.20;99.90;;;;;;5016989;28;20500;-58
2021/08/13 01:59:48;;;;;;;13.00;11.60;;;16.30;99.90;;;;;;5017345;28;20460;-58
2021/08/13 02:02:15;;;;;;;13.47;12.07;;;16.30;99.90;;;;;;5016478;28;20477;-58
2021/08/13 02:04:45;;;;;;;13.10;11.70;;;16.20;99.90;;;;;;5017236;28;20500;-58
2021/08/13 02:07:13;;;;;;;13.70;12.30;;;16.20;99.90;;;;;;5016533;28;20549;-58
2021/08/13 02:09:40;;;;;;;14.17;12.67;;;16.20;99.90;;;;;;5017156;28;20503;-57
2021/08/13 02:12:08;;;;;;;13.63;12.33;;;16.20;99.90;;;;;;5016282;28;20496;-58
2021/08/13 02:14:35;;;;;;;14.80;13.40;;;16.10;99.90;;;;;;5017087;28;20487;-59
2021/08/13 02:17:04;;;;;;;13.60;12.20;;;16.10;99.90;;;;;;5016426;28;20842;-58
2021/08/13 02:19:36;;;;;;;15.57;12.47;;;16.10;99.90;;;;;;5016954;28;20829;-57
2021/08/13 02:22:05;;;;;;;13.87;12.50;;;16.10;99.90;;;;;;5016076;28;20856;-59
2021/08/13 02:24:32;;;;;;;14.03;12.40;;;16.10;99.90;;;;;;5016569;28;20558;-58
2021/08/13 02:27:00;;;;;;;17.27;13.40;;;16.00;99.90;;;;;;5016703;28;20538;-56
2021/08/13 02:29:27;;;;;;;12.97;11.83;;;16.00;99.90;;;;;;5019590;28;20487;-58
2021/08/13 02:31:55;;;;;;;14.20;12.60;;;16.00;99.90;;;;;;5019913;28;20464;-58
2021/08/13 02:34:22;;;;;;;13.33;11.93;;;16.00;99.90;;;;;;5020138;28;20912;-58
2021/08/13 02:36:55;;;;;;;14.53;12.87;;;16.00;99.90;;;;;;5020311;28;20492;-59
2021/08/13 02:39:27;;;;;;;14.17;12.77;;;15.90;99.90;;;;;;5019863;28;20442;-58
2021/08/13 02:41:57;;;;;;;12.63;11.53;;;15.90;99.90;;;;;;5020251;28;20546;-59
2021/08/13 02:44:25;;;;;;;16.63;12.90;;;15.90;99.90;;;;;;5019649;28;20827;-59
2021/08/13 02:46:55;;;;;;;12.37;11.27;;;15.90;99.90;;;;;;5019870;28;20960;-59
2021/08/13 02:49:26;;;;;;;12.87;11.67;;;15.90;99.90;;;;;;5000043;28;20493;-60
2021/08/13 02:51:56;;;;;;;13.77;12.20;;;15.80;99.90;;;;;;5004006;28;20761;-60
2021/08/13 02:54:28;;;;;;;13.77;12.47;;;15.80;99.90;;;;;;5019639;28;20506;-59
2021/08/13 02:56:56;;;;;;;15.47;12.13;;;15.70;99.90;;;;;;5019633;28;20457;-59
2021/08/13 02:59:28;;;;;;;13.50;12.17;;;15.80;99.90;;;;;;5019948;28;20460;-59
2021/08/13 03:01:57;;;;;;;13.20;12.10;;;15.80;99.90;;;;;;5019240;28;20449;-59
2021/08/13 03:04:26;;;;;;;13.07;11.87;;;15.80;99.90;;;;;;5019614;28;20522;-60
2021/08/13 03:06:53;;;;;;;12.90;11.60;;;15.70;99.90;;;;;;5019194;28;20492;-60
2021/08/13 03:09:23;;;;;;;13.43;12.10;;;15.70;99.90;;;;;;5019321;28;20554;-60
2021/08/13 03:11:53;;;;;;;14.43;13.07;;;15.80;99.90;;;;;;5019280;28;20518;-60
2021/08/13 03:14:21;;;;;;;14.23;12.80;;;15.70;99.90;;;;;;5019478;28;20888;-60
2021/08/13 03:16:48;;;;;;;13.93;12.37;;;15.70;99.90;;;;;;5019280;28;20452;-60
2021/08/13 03:19:15;;;;;;;17.50;13.20;;;15.70;99.90;;;;;;5019310;28;20554;-60
2021/08/13 03:21:43;;;;;;;13.07;11.77;;;15.60;99.90;;;;;;5019882;28;20486;-60
2021/08/13 03:24:12;;;;;;;14.40;13.10;;;15.60;99.90;;;;;;5018817;28;20551;-59
2021/08/13 03:26:40;;;;;;;15.30;13.70;;;15.60;99.90;;;;;;5019268;28;20622;-60
2021/08/13 03:29:11;;;;;;;14.07;12.67;;;15.70;99.90;;;;;;5018893;28;20476;-59
2021/08/13 03:31:39;;;;;;;13.87;12.03;;;15.70;99.90;;;;;;5019441;28;20461;-60
2021/08/13 03:34:08;;;;;;;13.73;12.10;;;15.80;99.90;;;;;;5018374;28;20640;-60
2021/08/13 03:36:35;;;;;;;13.87;12.60;;;15.80;99.90;;;;;;5018888;28;20818;-60
2021/08/13 03:39:03;;;;;;;15.83;12.13;;;15.80;99.90;;;;;;4998779;28;20465;-60
2021/08/13 03:41:30;;;;;;;15.70;12.80;;;15.80;99.90;;;;;;5003133;28;20488;-60
2021/08/13 03:43:57;;;;;;;13.40;12.10;;;15.80;99.90;;;;;;5018842;28;20534;-60
2021/08/13 03:46:25;;;;;;;15.20;12.73;;;15.70;99.90;;;;;;5018494;28;20480;-60
2021/08/13 03:48:52;;;;;;;13.23;12.03;;;15.70;99.90;;;;;;5018795;28;20515;-60
2021/08/13 03:51:19;;;;;;;13.60;12.20;;;15.60;99.90;;;;;;5018636;28;20845;-60
2021/08/13 03:53:46;;;;;;;13.27;11.97;;;15.60;99.90;;;;;;5018934;28;20826;-59
2021/08/13 03:56:13;;;;;;;13.13;11.83;;;15.60;99.90;;;;;;5018001;28;20488;-60
2021/08/13 03:58:41;;;;;;;14.00;12.63;;;15.50;99.90;;;;;;5018730;28;20472;-59
2021/08/13 04:01:08;;;;;;;15.30;13.70;;;15.50;99.90;;;;;;5018302;28;20499;-60
2021/08/13 04:03:37;;;;;;;16.17;12.57;;;15.50;99.90;;;;;;5018989;28;20490;-60
2021/08/13 04:06:03;;;;;;;13.57;12.27;;;15.50;99.90;;;;;;5017901;28;20609;-60
2021/08/13 04:08:30;;;;;;;13.47;12.07;;;15.50;99.90;;;;;;5018395;28;20735;-60
2021/08/13 04:10:57;;;;;;;16.57;14.97;;;15.50;99.90;;;;;;5018782;28;20559;-60
2021/08/13 04:13:27;;;;;;;14.03;12.47;;;15.50;99.90;;;;;;5018608;28;20495;-60
2021/08/13 04:15:54;;;;;;;14.50;12.97;;;15.50;99.90;;;;;;5018068;28;20859;-60
2021/08/13 04:18:20;;;;;;;14.27;12.90;;;15.50;99.90;;;;;;5017484;28;21007;-60
2021/08/13 04:20:49;;;;;;;15.17;13.57;;;15.40;99.90;;;;;;5018328;28;20764;-60
2021/08/13 04:23:16;;;;;;;14.47;12.97;;;15.40;99.90;;;;;;5017939;28;20464;-60
2021/08/13 04:25:43;;;;;;;14.27;12.77;;;15.40;99.90;;;;;;5017960;28;20499;-60
2021/08/13 04:28:10;;;;;;;13.43;12.17;;;15.40;99.90;;;;;;5017640;28;20472;-60
2021/08/13 04:30:37;;;;;;;15.53;12.80;;;15.50;99.90;;;;;;5017983;28;20464;-60
2021/08/13 04:33:08;;;;;;;14.73;11.73;;;15.50;99.90;;;;;;5017938;28;20559;-60
2021/08/13 04:35:35;;;;;;;15.90;13.40;;;15.50;99.90;;;;;;5017259;28;20473;-60
2021/08/13 04:38:04;;;;;;;14.30;13.00;;;15.50;99.90;;;;;;5017869;28;20924;-59
2021/08/13 04:40:31;;;;;;;13.60;12.20;;;15.50;99.90;;;;;;5017192;28;20499;-59
2021/08/13 04:42:58;;;;;;;14.97;13.27;;;15.50;99.90;;;;;;5018246;28;20510;-59
2021/08/13 04:45:25;;;;;;;14.83;12.50;;;15.60;99.90;;;;;;5017776;28;20939;-59
2021/08/13 04:47:53;;;;;;;14.10;12.80;;;15.60;99.90;;;;;;5017614;28;20987;-59
2021/08/13 04:50:20;;;;;;;14.63;12.70;;;15.70;99.90;;;;;;5016806;28;20526;-59
2021/08/13 04:52:49;;;;;;;15.03;13.57;;;15.80;99.90;;;;;;5017622;28;20475;-59
2021/08/13 04:55:21;;;;;;;15.10;13.80;;;15.80;99.90;;;;;;5017541;28;20880;-59
2021/08/13 04:57:48;;;;;;;17.10;13.50;;;15.90;99.90;;;;;;5015545;28;20496;-59
2021/08/13 05:00:16;;;;;;;17.63;13.97;;;15.90;99.90;;;;;;5017381;28;20514;-59
2021/08/13 05:02:43;;;;;;;14.47;13.10;;;15.90;99.90;;;;;;5017771;28;20881;-59
2021/08/13 05:05:10;;;;;;;13.70;12.40;;;15.90;99.90;;;;;;5017968;28;20472;-59
2021/08/13 05:07:38;;;;;;;15.73;14.13;;;16.00;99.90;;;;;;5017526;28;20527;-59
2021/08/13 05:10:10;;;;;;;15.27;13.90;;;16.10;99.90;;;;;;5017336;28;20464;-59
2021/08/13 05:12:39;;;;;;;14.87;13.27;;;16.30;99.90;;;;;;5017441;28;20474;-60
2021/08/13 05:15:08;;;;;;;15.60;14.07;;;16.30;99.90;;;;;;5017423;28;20488;-59
2021/08/13 05:17:35;;;;;;;15.53;13.83;;;16.40;99.90;;;;;;5005303;28;20777;-59
2021/08/13 05:20:02;;;;;;;15.43;13.80;;;16.40;99.90;;;;;;4998228;28;20460;-59
2021/08/13 05:22:33;;;;;;;15.17;13.57;;;16.50;99.90;;;;;;4997763;28;20461;-59
2021/08/13 05:25:02;;;;;;;15.20;13.60;;;16.60;99.90;;;;;;4997993;28;20469;-59
2021/08/13 05:27:28;;;;;;;15.23;13.80;;;16.60;99.90;;;;;;4997247;28;20590;-59
2021/08/13 05:29:57;;;;;;;18.33;13.00;;;16.70;99.90;;;;;;5010526;28;20498;-59
2021/08/13 05:32:24;;;;;;;15.30;13.80;;;16.80;99.90;;;;;;5015561;28;20562;-59
2021/08/13 05:34:54;;;;;;;14.50;13.00;;;17.00;99.90;;;;;;5016653;28;20494;-59
2021/08/13 05:37:21;;;;;;;16.67;14.00;;;17.20;99.90;;;;;;4998139;28;20457;-59
2021/08/13 05:39:50;;;;;;;15.20;13.60;;;17.20;99.90;;;;;;5016604;28;20495;-59
2021/08/13 05:42:17;;;;;;;15.80;14.30;;;17.40;99.90;;;;;;5016691;28;20463;-59
2021/08/13 05:44:44;;;;;;;16.37;14.17;;;17.50;99.90;;;;;;5016201;28;20472;-59
2021/08/13 05:47:12;;;;;;;15.00;13.50;;;17.60;99.90;;;;;;5016741;28;20499;-59
2021/08/13 05:49:39;;;;;;;15.87;14.20;;;17.80;99.90;;;;;;5014506;28;20471;-57
2021/08/13 05:52:15;;;;;;;16.43;14.77;;;17.90;99.90;;;;;;5016525;28;20468;-58
2021/08/13 05:54:42;;;;;;;14.97;13.13;;;18.00;99.90;;;;;;5010037;28;20518;-58
2021/08/13 05:57:08;;;;;;;14.50;13.10;;;18.10;99.90;;;;;;5015897;28;20497;-58
2021/08/13 05:59:35;;;;;;;13.80;12.30;;;18.10;99.90;;;;;;5013810;28;20515;-58
2021/08/13 06:02:05;;;;;;;15.93;14.33;;;18.20;99.90;;;;;;5016391;28;20506;-58
2021/08/13 06:04:33;;;;;;;14.20;12.70;;;18.30;99.90;;;;;;5019445;28;20464;-58
2021/08/13 06:07:00;;;;;;;17.17;13.23;;;18.60;99.90;;;;;;5020304;28;20524;-58
2021/08/13 06:09:27;;;;;;;13.97;12.67;;;18.70;99.90;;;;;;5020018;28;20948;-58
2021/08/13 06:11:54;;;;;;;17.47;13.10;;;18.90;99.90;;;;;;5020004;28;20947;-56
2021/08/13 06:14:20;;;;;;;15.07;13.57;;;19.00;99.90;;;;;;5019879;28;20816;-58
2021/08/13 06:16:47;;;;;;;15.03;13.53;;;19.20;99.90;;;;;;5020078;28;20463;-58
2021/08/13 06:19:14;;;;;;;13.53;12.23;;;19.50;99.90;;;;;;5019662;28;20947;-57
2021/08/13 06:21:43;;;;;;;13.43;11.90;;;19.80;99.90;;;;;;5020312;28;20943;-58
2021/08/13 06:24:12;;;;;;;14.90;12.40;;;20.10;99.90;;;;;;5019909;28;20503;-54
2021/08/13 06:26:39;;;;;;;15.70;11.90;;;20.30;99.90;;;;;;5019694;28;20541;-58
2021/08/13 06:29:06;;;;;;;15.33;13.40;;;20.60;99.90;;;;;;5003236;28;20567;-57
2021/08/13 06:31:33;;;;;;;17.37;13.87;;;20.80;99.90;;;;;;5020164;28;20488;-58
2021/08/13 06:34:00;;;;;;;13.43;12.23;;;20.90;99.90;;;;;;5020798;28;20526;-56
2021/08/13 06:36:27;;;;;;;13.70;11.90;;;20.90;99.90;;;;;;5021046;28;20495;-57
2021/08/13 06:39:00;;;;;;;13.97;12.57;;;20.80;99.90;;;;;;5019852;28;20558;-57
2021/08/13 06:41:27;;;;;;;14.60;12.40;;;21.00;99.90;;;;;;5019240;28;20471;-58
2021/08/13 06:43:58;;;;;;;12.57;11.40;;;21.20;99.90;;;;;;5021624;28;20927;-56
2021/08/13 06:46:25;;;;;;;16.57;13.30;;;21.60;99.90;;;;;;5018931;28;20463;-57
2021/08/13 06:48:52;;;;;;;14.60;12.63;;;21.90;99.90;;;;;;5019968;28;20456;-58
2021/08/13 06:51:20;;;;;;;15.13;13.83;;;22.10;99.90;;;;;;5018326;28;20522;-58
2021/08/13 06:53:47;;;;;;;15.70;12.00;;;22.20;99.90;;;;;;5015116;28;20750;-56
2021/08/13 06:56:18;;;;;;;14.20;12.83;;;22.20;99.90;;;;;;5018037;28;20533;-56
2021/08/13 06:58:48;;;;;;;14.23;12.83;;;22.40;99.90;;;;;;5017991;28;20932;-56
2021/08/13 07:01:17;;;;;;;13.67;12.03;;;22.50;99.90;;;;;;5017296;28;20523;-56
2021/08/13 07:03:44;;;;;;;14.10;12.37;;;22.60;99.90;;;;;;5018330;28;20494;-57
2021/08/13 07:06:11;;;;;;;12.83;11.53;;;22.80;99.90;;;;;;5017766;28;20500;-56
2021/08/13 07:08:38;;;;;;;14.30;12.83;;;22.70;99.90;;;;;;5017605;28;20530;-58
2021/08/13 07:11:05;;;;;;;13.60;12.20;;;22.70;99.90;;;;;;5018671;28;20804;-58
2021/08/13 07:13:33;;;;;;;13.03;11.70;;;23.00;99.90;;;;;;5017687;28;20446;-58
2021/08/13 07:16:00;;;;;;;12.13;11.03;;;23.10;99.90;;;;;;5018619;28;20441;-57
2021/08/13 07:18:30;;;;;;;12.60;11.40;;;23.40;99.90;;;;;;5015477;28;20557;-55
2021/08/13 07:20:57;;;;;;;16.47;11.60;;;23.50;99.90;;;;;;5018926;28;20464;-58
2021/08/13 07:23:26;;;;;;;12.80;11.40;;;23.30;99.90;;;;;;5018345;28;20496;-58
2021/08/13 07:25:53;;;;;;;14.07;12.60;;;23.50;99.90;;;;;;5014889;28;20642;-55
2021/08/13 07:28:20;;;;;;;12.87;11.23;;;23.80;99.90;;;;;;5018003;28;20539;-56
2021/08/13 07:30:54;;;;;;;15.97;12.40;;;23.80;99.90;;;;;;5014740;28;20439;-57
2021/08/13 07:33:35;;;;;;;13.10;11.80;;;23.90;99.90;;;;;;5017120;28;20464;-58
2021/08/13 07:36:02;;;;;;;14.00;12.40;;;24.10;99.90;;;;;;5018493;28;20538;-53
2021/08/13 07:38:30;;;;;;;13.37;11.97;;;24.30;99.90;;;;;;5018876;28;20459;-55
2021/08/13 07:40:57;;;;;;;12.90;11.70;;;24.60;99.90;;;;;;5018783;28;20468;-54
2021/08/13 07:43:24;;;;;;;13.40;12.20;;;24.80;99.90;;;;;;5018575;28;20563;-57
2021/08/13 07:45:52;;;;;;;14.83;10.80;;;24.90;99.90;;;;;;5018752;28;20460;-55
2021/08/13 07:48:19;;;;;;;14.23;12.77;;;25.20;99.90;;;;;;5018173;28;20590;-57
2021/08/13 07:50:53;;;;;;;13.70;12.50;;;24.90;99.90;;;;;;5018292;28;20503;-57
2021/08/13 07:53:19;;;;;;;13.53;12.23;;;24.80;99.90;;;;;;5018351;28;20506;-58
2021/08/13 07:55:46;;;;;;;13.40;11.43;;;25.00;99.90;;;;;;5018231;28;20500;-53
2021/08/13 07:58:16;;;;;;;12.53;11.33;;;25.20;99.90;;;;;;5018753;28;20495;-54
2021/08/13 08:00:45;;;;;;;13.83;12.50;;;25.50;99.90;;;;;;5018209;28;20495;-57
2021/08/13 08:03:16;;;;;;;13.17;11.70;;;25.80;99.90;;;;;;5018566;28;20474;-57
2021/08/13 08:05:43;;;;;;;12.30;11.20;;;25.80;99.90;;;;;;5017813;28;20475;-55
2021/08/13 08:45:41;;;;;;;27.50;18.43;;;24.70;99.90;;;;;;5014782;28;20487;-55
2021/08/13 08:48:12;;;;;;;19.50;17.70;;;25.20;99.90;;;;;;5016863;28;20507;-57
2021/08/13 08:50:40;;;;;;;21.53;19.20;;;25.30;99.90;;;;;;5016722;28;20462;-52
2021/08/13 08:53:16;;;;;;;22.27;19.97;;;25.70;99.90;;;;;;5017124;28;20474;-57
2021/08/13 08:55:43;;;;;;;23.53;20.90;;;25.80;99.90;;;;;;5017533;28;20768;-56
2021/08/13 08:58:11;;;;;;;20.97;19.00;;;25.60;99.90;;;;;;5017831;28;20525;-56
2021/08/13 09:00:38;;;;;;;21.50;19.43;;;25.50;99.90;;;;;;5017179;28;20468;-54
2021/08/13 09:03:07;;;;;;;20.80;18.80;;;25.50;99.90;;;;;;5017710;28;20538;-57
2021/08/13 09:05:34;;;;;;;24.50;22.00;;;25.90;99.90;;;;;;5017029;28;20873;-57
2021/08/13 09:08:04;;;;;;;23.87;21.47;;;25.80;99.70;;;;;;5017288;28;20503;-56
2021/08/13 09:10:31;;;;;;;24.30;20.10;;;25.50;99.90;;;;;;5016549;28;20471;-54
2021/08/13 09:13:04;;;;;;;23.03;20.60;;;25.40;99.90;;;;;;4999126;28;20453;-54
2021/08/13 09:15:33;;;;;;;21.63;19.43;;;25.20;99.90;;;;;;5014571;28;20464;-55
2021/08/13 09:18:21;;;;;;;22.77;20.37;;;25.50;99.90;;;;;;5015745;28;20452;-54
2021/08/13 09:20:51;;;;;;;24.20;21.80;;;25.40;99.90;;;;;;5002143;28;20487;-55
2021/08/13 09:23:33;;;;;;;24.20;21.30;;;25.30;99.90;;;;;;5017368;28;20435;-57
2021/08/13 09:26:01;;;;;;;23.43;21.00;;;25.30;99.90;;;;;;5016981;28;20588;-53
2021/08/13 09:28:47;;;;;;;25.07;22.43;;;24.80;99.50;;;;;;5016153;28;20531;-52
2021/08/13 09:31:27;;;;;;;25.20;22.60;;;24.60;99.90;;;;;;5016823;28;20743;-54
2021/08/13 09:34:07;;;;;;;31.00;24.27;;;24.20;99.90;;;;;;5014198;28;20896;-51
2021/08/13 09:36:41;;;;;;;27.80;24.97;;;24.00;99.90;;;;;;5017000;28;20521;-56
2021/08/13 09:39:10;;;;;;;28.67;25.63;;;24.10;99.90;;;;;;5021278;28;20872;-55
2021/08/13 09:41:49;;;;;;;27.40;24.57;;;23.90;99.90;;;;;;5020780;28;20459;-57
2021/08/13 09:44:28;;;;;;;28.67;25.87;;;23.70;99.90;;;;;;5020897;28;20990;-56
2021/08/13 09:47:01;;;;;;;31.20;27.90;;;24.00;99.90;;;;;;5020596;28;20529;-57
2021/08/13 09:49:31;;;;;;;31.23;28.07;;;24.10;99.90;;;;;;5021133;28;20496;-55
2021/08/13 09:52:14;;;;;;;35.47;27.13;;;23.80;99.90;;;;;;5019759;28;20467;-56
2021/08/13 09:54:41;;;;;;;31.23;28.00;;;23.70;99.90;;;;;;5005355;28;20460;-57
2021/08/13 09:57:09;;;;;;;28.83;25.90;;;23.80;99.90;;;;;;5020865;28;20768;-57
2021/08/13 09:59:38;;;;;;;31.40;28.13;;;24.20;99.90;;;;;;5020700;28;20514;-57
2021/08/13 10:02:13;;;;;;;31.60;28.50;;;24.30;99.90;;;;;;5001380;28;20512;-55
2021/08/13 10:04:42;;;;;;;30.67;27.07;;;24.30;99.90;;;;;;5020287;28;20467;-56
2021/08/13 10:07:17;;;;;;;31.53;28.30;;;24.30;99.90;;;;;;5020625;28;20468;-51
2021/08/13 10:09:44;;;;;;;31.33;28.10;;;24.40;99.90;;;;;;5019842;28;20463;-56
2021/08/13 10:12:12;;;;;;;33.73;30.47;;;24.70;99.90;;;;;;5020682;28;20751;-55
2021/08/13 10:14:42;;;;;;;35.93;31.03;;;24.80;99.90;;;;;;5020204;28;20534;-57
2021/08/13 10:17:14;;;;;;;36.73;33.27;;;24.50;99.90;;;;;;5019818;28;20491;-52
2021/08/13 10:19:46;;;;;;;36.50;32.50;;;25.00;99.90;;;;;;5019653;28;20529;-51
2021/08/13 10:22:15;;;;;;;36.97;33.43;;;25.50;99.90;;;;;;5019064;28;20479;-51
2021/08/13 10:24:43;;;;;;;38.93;34.90;;;25.90;99.90;;;;;;5018491;28;20562;-54
2021/08/13 10:27:15;;;;;;;36.10;32.60;;;26.00;99.90;;;;;;5019206;28;20550;-53
2021/08/13 10:29:47;;;;;;;36.30;32.17;;;26.60;99.80;;;;;;5020170;28;20517;-55
2021/08/13 10:32:17;;;;;;;30.67;27.70;;;27.10;99.90;;;;;;5019156;28;20817;-53
2021/08/13 10:34:48;;;;;;;33.13;29.87;;;27.90;96.40;;;;;;5019926;28;20519;-54
2021/08/13 10:37:16;;;;;;;31.07;28.07;;;28.50;95.10;;;;;;5015606;28;20475;-57
2021/08/13 10:39:46;;;;;;;37.53;31.20;;;28.90;88.40;;;;;;5019812;28;20879;-57
2021/08/13 10:42:21;;;;;;;30.73;27.73;;;29.00;87.00;;;;;;5018456;28;20468;-48
2021/08/13 10:44:52;;;;;;;25.80;23.40;;;29.00;84.30;;;;;;5013115;28;21008;-53
2021/08/13 10:47:29;;;;;;;25.40;22.90;;;28.10;77.50;;;;;;5017855;28;20488;-55
2021/08/13 10:49:59;;;;;;;21.70;19.50;;;27.60;80.10;;;;;;5013267;28;20473;-51
2021/08/13 10:52:34;;;;;;;21.53;19.50;;;27.40;81.20;;;;;;5014033;28;20511;-51
2021/08/13 10:55:01;;;;;;;19.90;17.73;;;27.80;80.40;;;;;;5014543;28;20911;-52
2021/08/13 10:57:55;;;;;;;20.00;18.20;;;28.60;81.20;;;;;;5018034;28;20459;-51
2021/08/13 11:00:22;;;;;;;24.60;22.27;;;29.20;77.90;;;;;;5017738;28;20766;-55
2021/08/13 11:03:19;;;;;;;23.67;21.50;;;29.60;73.80;;;;;;5016804;28;20839;-53
2021/08/13 11:05:58;;;;;;;24.47;21.90;;;29.40;73.30;;;;;;5007157;28;21014;-52
2021/08/13 11:09:01;;;;;;;21.13;19.03;;;29.50;71.80;;;;;;5019168;28;20838;-49
2021/08/13 11:12:02;;;;;;;22.73;20.43;;;29.20;71.00;;;;;;5018901;28;20464;-51
2021/08/13 11:14:31;;;;;;;21.60;19.63;;;28.40;70.70;;;;;;5018251;28;20492;-50
2021/08/13 11:17:01;;;;;;;23.00;20.60;;;28.10;75.50;;;;;;5019055;28;20491;-51
2021/08/13 11:19:30;;;;;;;22.30;20.17;;;28.20;73.00;;;;;;5019550;28;20494;-52
2021/08/13 11:21:59;;;;;;;17.07;15.63;;;28.40;72.50;;;;;;5018303;28;20551;-55
2021/08/13 11:24:48;;;;;;;22.27;17.07;;;28.20;72.20;;;;;;5018831;28;20435;-46
2021/08/13 11:27:15;;;;;;;20.30;18.43;;;28.40;73.80;;;;;;5012861;28;20558;-52
2021/08/13 11:29:44;;;;;;;20.53;18.43;;;29.40;69.30;;;;;;5017869;28;20936;-57
2021/08/13 11:32:31;;;;;;;21.93;19.73;;;29.10;69.00;;;;;;5016261;28;20461;-56
2021/08/13 11:35:04;;;;;;;18.87;17.00;;;28.30;70.10;;;;;;5014220;28;21102;-57
2021/08/13 11:37:52;;;;;;;18.73;16.93;;;27.90;72.60;;;;;;5018807;28;20464;-53
2021/08/13 12:13:19;;;;;;;15.27;13.80;;;26.90;82.90;;;;;;5513373;23;20472;31
2021/08/13 12:15:47;;;;;;;13.23;11.97;;;27.00;81.30;;;;;;4976276;28;20469;-59
2021/08/13 12:18:14;;;;;;;13.87;12.63;;;27.40;80.70;;;;;;4975841;28;20593;-58
2021/08/13 12:20:48;;;;;;;15.30;13.50;;;27.10;78.70;;;;;;4977282;28;20497;-57
2021/08/13 12:23:17;;;;;;;14.90;13.30;;;27.00;79.70;;;;;;4979021;28;20470;-56
2021/08/13 12:25:45;;;;;;;14.17;12.70;;;27.30;79.40;;;;;;4978560;28;20505;-55
2021/08/13 12:28:14;;;;;;;12.30;11.27;;;27.20;76.90;;;;;;4979062;28;20501;-56
2021/08/13 12:30:43;;;;;;;13.67;12.30;;;27.80;76.60;;;;;;4978756;28;20516;-57
2021/08/13 12:33:19;;;;;;;14.17;10.50;;;28.10;73.80;;;;;;4969506;28;20639;-57
2021/08/13 12:35:48;;;;;;;9.43;8.37;;;28.50;71.50;;;;;;4977550;28;20747;-57
2021/08/13 12:38:16;;;;;;;10.80;9.67;;;28.30;70.90;;;;;;4964091;28;20943;-57
2021/08/13 12:40:46;;;;;;;14.00;8.80;;;28.30;72.80;;;;;;4975760;28;20929;-57
2021/08/13 12:43:17;;;;;;;10.03;9.23;;;28.40;70.50;;;;;;4970986;28;20485;-59
2021/08/13 12:45:50;;;;;;;10.33;9.10;;;28.10;71.30;;;;;;4962562;28;20470;-57
2021/08/13 12:48:20;;;;;;;8.70;7.83;;;28.10;70.10;;;;;;4977475;28;20496;-58
2021/08/13 12:50:54;;;;;;;8.57;7.87;;;27.80;71.10;;;;;;4978712;28;20476;-59
2021/08/13 12:53:32;;;;;;;8.77;7.70;;;27.20;72.00;;;;;;4978555;28;20965;-58
2021/08/13 12:55:59;;;;;;;7.60;6.90;;;27.60;72.40;;;;;;4977969;28;20475;-58
2021/08/13 12:58:32;;;;;;;7.70;7.00;;;27.20;72.50;;;;;;4971451;28;20584;-59
2021/08/13 13:00:59;;;;;;;7.10;6.40;;;27.40;73.40;;;;;;4964778;28;20468;-59
2021/08/13 13:03:27;;;;;;;7.77;6.30;;;27.90;71.20;;;;;;4967586;28;20470;-58
2021/08/13 13:06:08;;;;;;;6.33;5.83;;;28.00;69.50;;;;;;4978228;28;20498;-58
2021/08/13 13:08:48;;;;;;;9.97;5.53;;;28.10;67.80;;;;;;4978204;28;20468;-59
2021/08/13 13:11:26;;;;;;;6.17;5.67;;;28.30;67.20;;;;;;4978363;28;20489;-57
2021/08/13 13:13:57;;;;;;;5.07;4.67;;;28.20;66.70;;;;;;4977095;28;20490;-57
2021/08/13 13:16:25;;;;;;;4.87;4.47;;;27.90;68.10;;;;;;4967724;28;20557;-57
2021/08/13 13:18:53;;;;;;;5.50;5.00;;;27.90;65.10;;;;;;4989375;28;20525;-56
2021/08/13 13:21:28;;;;;;;3.50;3.20;;;27.60;62.50;;;;;;4978430;28;20561;-57
2021/08/13 13:23:57;;;;;;;4.80;4.40;;;27.60;64.10;;;;;;4974967;28;20882;-56
2021/08/13 13:26:32;;;;;;;3.93;3.63;;;27.40;64.90;;;;;;4977504;28;20580;-53
2021/08/13 13:29:11;;;;;;;4.00;3.70;;;27.30;64.10;;;;;;4965811;28;20502;-54
2021/08/13 13:31:46;;;;;;;4.97;4.20;;;27.20;63.10;;;;;;4973894;28;20480;-56
2021/08/13 13:34:22;;;;;;;4.30;4.00;;;27.20;62.70;;;;;;4975780;28;20496;-57
2021/08/13 13:36:49;;;;;;;4.47;4.03;;;26.80;65.80;;;;;;4972800;28;20564;-56
2021/08/13 13:39:19;;;;;;;4.40;4.10;;;26.70;65.20;;;;;;4974151;28;20488;-56
2021/08/13 13:41:46;;;;;;;6.27;4.17;;;27.00;65.80;;;;;;4968926;28;20583;-56
2021/08/13 13:44:25;;;;;;;4.30;3.90;;;27.00;66.00;;;;;;4975078;28;20511;-54
2021/08/13 13:46:52;;;;;;;3.80;3.50;;;27.10;64.70;;;;;;4978291;28;20550;-56
2021/08/13 13:49:24;;;;;;;4.97;4.57;;;27.20;65.60;;;;;;4978056;28;20502;-57
2021/08/13 13:51:55;;;;;;;4.27;3.97;;;27.30;66.10;;;;;;4977693;28;20565;-53
2021/08/13 13:54:23;;;;;;;4.40;4.10;;;27.50;65.40;;;;;;4977809;28;20505;-56